createdAt,value
2023-04-11T00:01:49.679Z,60.26
2023-04-11T00:04:20.590Z,60.97
2023-04-11T00:06:48.620Z,61.77
2023-04-11T00:09:17.011Z,62.18
2023-04-11T00:11:44.367Z,63.24
2023-04-11T00:14:12.717Z,65.65
2023-04-11T00:16:41.442Z,66.86
2023-04-11T00:19:09.616Z,68.34
2023-04-11T00:21:39.853Z,68.96
2023-04-11T00:24:10.534Z,69.83
2023-04-11T00:26:37.926Z,70.31
2023-04-11T00:29:05.322Z,70.99
2023-04-11T00:31:32.927Z,70.59
2023-04-11T00:34:00.318Z,70.33
2023-04-11T00:36:27.902Z,74.04
2023-04-11T00:38:55.693Z,74.67
2023-04-11T00:41:24.416Z,77.05
2023-04-11T00:43:51.764Z,78.16
2023-04-11T00:46:19.451Z,81.08
2023-04-11T00:48:47.150Z,82.11
2023-04-11T00:51:15.943Z,81.97
2023-04-11T00:53:45.551Z,83.58
2023-04-11T00:56:13.390Z,83.54
2023-04-11T00:58:41.628Z,85.14
2023-04-11T01:01:09.678Z,85.37
2023-04-11T01:03:41.356Z,86.27
2023-04-11T01:06:10.295Z,86.63
2023-04-11T01:08:39.540Z,94.02
2023-04-11T01:11:07.775Z,98.48
2023-04-11T01:13:35.910Z,100.00
2023-04-11T01:16:04.167Z,100.00
2023-04-11T01:18:31.695Z,100.00
2023-04-11T01:21:00.507Z,100.00
2023-04-11T01:23:28.350Z,100.00
2023-04-11T01:25:55.725Z,100.00
2023-04-11T01:28:23.051Z,100.00
2023-04-11T01:30:50.982Z,100.00
2023-04-11T01:33:18.891Z,100.00
2023-04-11T01:35:46.458Z,100.00
2023-04-11T01:38:13.893Z,100.00
2023-04-11T01:40:42.348Z,100.00
2023-04-11T01:43:10.011Z,100.00
2023-04-11T01:45:37.521Z,100.00
2023-04-11T01:48:08.620Z,100.00
2023-04-11T01:50:36.143Z,100.00
2023-04-11T01:53:04.887Z,100.00
2023-04-11T01:55:32.241Z,100.00
2023-04-11T01:57:59.640Z,100.00
2023-04-11T02:00:27.041Z,100.00
2023-04-11T02:02:54.525Z,100.00
2023-04-11T02:05:22.136Z,100.00
2023-04-11T02:07:49.486Z,100.00
2023-04-11T02:10:18.830Z,100.00
2023-04-11T02:12:46.367Z,100.00
2023-04-11T02:15:13.787Z,100.00
2023-04-11T02:17:45.500Z,100.00
2023-04-11T02:20:14.246Z,100.00
2023-04-11T02:22:42.145Z,100.00
2023-04-11T02:25:09.846Z,100.00
2023-04-11T02:27:37.373Z,100.00
2023-04-11T02:30:06.180Z,100.00
2023-04-11T02:32:40.196Z,100.00
2023-04-11T02:35:08.193Z,100.00
2023-04-11T02:37:35.915Z,100.00
2023-04-11T02:40:04.925Z,100.00
2023-04-11T02:42:32.353Z,100.00
2023-04-11T02:44:59.928Z,100.00
2023-04-11T02:47:29.311Z,100.00
2023-04-11T02:50:01.653Z,100.00
2023-04-11T02:52:34.868Z,100.00
2023-04-11T02:55:02.427Z,100.00
2023-04-11T02:57:29.795Z,100.00
2023-04-11T02:59:58.283Z,100.00
2023-04-11T03:02:34.832Z,100.00
2023-04-11T03:05:04.141Z,100.00
2023-04-11T03:07:34.476Z,100.00
2023-04-11T03:10:01.858Z,100.00
2023-04-11T03:12:29.301Z,100.00
2023-04-11T03:15:01.172Z,100.00
2023-04-11T03:17:28.643Z,100.00
2023-04-11T03:19:56.462Z,100.00
2023-04-11T03:22:24.904Z,100.00
2023-04-11T03:24:52.347Z,100.00
2023-04-11T03:27:22.544Z,100.00
2023-04-11T03:29:55.549Z,100.00
2023-04-11T03:32:39.004Z,100.00
2023-04-11T03:35:06.749Z,100.00
2023-04-11T03:37:35.030Z,100.00
2023-04-11T03:40:03.833Z,100.00
2023-04-11T03:42:31.930Z,100.00
2023-04-11T03:45:01.244Z,100.00
2023-04-11T03:47:29.118Z,100.00
2023-04-11T03:50:01.126Z,100.00
2023-04-11T03:52:29.912Z,100.00
2023-04-11T03:54:57.371Z,100.00
2023-04-11T03:57:29.839Z,100.00
2023-04-11T03:59:57.945Z,100.00
2023-04-11T04:02:25.951Z,100.00
2023-04-11T04:04:58.925Z,100.00
2023-04-11T04:07:30.075Z,100.00
2023-04-11T04:10:07.946Z,100.00
2023-04-11T04:12:36.066Z,100.00
2023-04-11T04:15:09.608Z,100.00
2023-04-11T04:17:37.122Z,100.00
2023-04-11T04:20:11.092Z,100.00
2023-04-11T04:22:39.940Z,100.00
2023-04-11T04:25:09.540Z,100.00
2023-04-11T04:27:36.946Z,100.00
2023-04-11T04:30:04.873Z,100.00
2023-04-11T04:32:59.188Z,100.00
2023-04-11T04:35:27.891Z,100.00
2023-04-11T04:37:57.090Z,100.00
2023-04-11T04:40:45.884Z,100.00
2023-04-11T04:43:19.214Z,100.00
2023-04-11T04:45:55.913Z,100.00
2023-04-11T04:48:27.964Z,100.00
2023-04-11T04:50:56.058Z,100.00
2023-04-11T04:53:23.147Z,100.00
2023-04-11T04:55:55.486Z,100.00
2023-04-11T04:58:23.726Z,100.00
2023-04-11T05:00:56.292Z,100.00
2023-04-11T05:03:28.018Z,100.00
2023-04-11T05:05:56.750Z,100.00
2023-04-11T05:08:24.588Z,100.00
2023-04-11T05:10:54.516Z,100.00
2023-04-11T05:13:22.089Z,100.00
2023-04-11T05:15:50.137Z,100.00
2023-04-11T05:18:17.998Z,100.00
2023-04-11T05:20:45.565Z,100.00
2023-04-11T05:23:18.059Z,100.00
2023-04-11T05:25:45.306Z,100.00
2023-04-11T05:28:15.184Z,100.00
2023-04-11T05:30:42.679Z,100.00
2023-04-11T05:33:12.761Z,100.00
2023-04-11T05:35:41.959Z,100.00
2023-04-11T05:38:09.892Z,100.00
2023-04-11T05:40:37.127Z,100.00
2023-04-11T05:43:04.211Z,100.00
2023-04-11T05:45:31.385Z,100.00
2023-04-11T05:47:58.412Z,100.00
2023-04-11T05:50:26.940Z,100.00
2023-04-11T05:52:53.952Z,100.00
2023-04-11T05:55:20.946Z,100.00
2023-04-11T05:57:48.377Z,100.00
2023-04-11T06:00:16.945Z,100.00
2023-04-11T06:02:44.917Z,100.00
2023-04-11T06:05:12.582Z,100.00
2023-04-11T06:07:40.317Z,100.00
2023-04-11T06:10:08.811Z,100.00
2023-04-11T06:12:36.350Z,100.00
2023-04-11T06:15:04.087Z,100.00
2023-04-11T06:17:31.704Z,100.00
2023-04-11T06:19:59.104Z,100.00
2023-04-11T06:22:26.461Z,100.00
2023-04-11T06:24:53.781Z,100.00
2023-04-11T06:27:21.115Z,100.00
2023-04-11T06:29:48.476Z,100.00
2023-04-11T06:32:16.312Z,100.00
2023-04-11T06:34:43.684Z,100.00
2023-04-11T06:37:11.013Z,100.00
2023-04-11T06:39:38.375Z,100.00
2023-04-11T06:42:05.742Z,100.00
2023-04-11T06:44:33.941Z,100.00
2023-04-11T06:47:01.403Z,100.00
2023-04-11T06:49:28.904Z,100.00
2023-04-11T06:51:56.582Z,100.00
2023-04-11T06:54:23.997Z,100.00
2023-04-11T06:56:51.583Z,100.00
2023-04-11T06:59:20.355Z,100.00
2023-04-11T07:01:48.817Z,100.00
2023-04-11T07:04:17.252Z,100.00
2023-04-11T07:06:44.718Z,100.00
2023-04-11T07:09:14.777Z,100.00
2023-04-11T07:11:42.233Z,100.00
2023-04-11T07:14:09.647Z,100.00
2023-04-11T07:16:37.146Z,100.00
2023-04-11T07:19:04.564Z,100.00
2023-04-11T07:21:32.439Z,100.00
2023-04-11T07:24:00.742Z,100.00
2023-04-11T07:26:32.507Z,100.00
2023-04-11T07:29:00.854Z,100.00
2023-04-11T07:31:28.349Z,100.00
2023-04-11T07:33:56.006Z,100.00
2023-04-11T07:36:23.740Z,100.00
2023-04-11T07:38:52.334Z,100.00
2023-04-11T07:41:19.663Z,100.00
2023-04-11T07:43:47.150Z,100.00
2023-04-11T07:46:15.124Z,100.00
2023-04-11T07:48:43.216Z,100.00
2023-04-11T07:51:11.004Z,100.00
2023-04-11T07:53:38.575Z,100.00
2023-04-11T07:56:06.258Z,100.00
2023-04-11T07:58:33.688Z,100.00
2023-04-11T08:01:02.608Z,100.00
2023-04-11T08:03:30.273Z,100.00
2023-04-11T08:05:57.786Z,100.00
2023-04-11T08:08:26.090Z,100.00
2023-04-11T08:10:53.585Z,100.00
2023-04-11T08:13:21.242Z,100.00
2023-04-11T08:15:48.553Z,100.00
2023-04-11T08:18:16.486Z,100.00
2023-04-11T08:20:43.910Z,100.00
2023-04-11T08:23:11.409Z,100.00
2023-04-11T08:25:39.238Z,100.00
2023-04-11T08:28:06.974Z,100.00
2023-04-11T08:30:34.338Z,100.00
2023-04-11T08:33:01.934Z,100.00
2023-04-11T08:35:29.531Z,100.00
2023-04-11T08:37:56.962Z,100.00
2023-04-11T08:40:26.443Z,100.00
2023-04-11T08:42:59.925Z,100.00
2023-04-11T08:45:28.046Z,100.00
2023-04-11T08:47:55.576Z,100.00
2023-04-11T08:50:23.144Z,100.00
2023-04-11T08:52:52.348Z,100.00
2023-04-11T08:55:19.786Z,100.00
2023-04-11T08:57:47.268Z,100.00
2023-04-11T09:00:15.430Z,100.00
2023-04-11T09:03:03.537Z,100.00
2023-04-11T09:05:39.431Z,100.00
2023-04-11T09:08:09.249Z,100.00
2023-04-11T09:10:37.954Z,100.00
2023-04-11T09:13:25.848Z,100.00
2023-04-11T09:16:13.062Z,100.00
2023-04-11T09:18:42.717Z,100.00
2023-04-11T09:21:12.958Z,99.57
2023-04-11T09:23:40.776Z,93.48
2023-04-11T09:26:09.809Z,92.32
2023-04-11T09:28:45.562Z,96.91
2023-04-11T09:31:13.919Z,100.00
2023-04-11T09:33:53.713Z,100.00
2023-04-11T09:36:24.802Z,100.00
2023-04-11T09:38:52.157Z,100.00
2023-04-11T09:41:38.343Z,100.00
2023-04-11T09:44:05.891Z,100.00
2023-04-11T09:46:33.614Z,100.00
2023-04-11T09:49:03.649Z,100.00
2023-04-11T09:51:35.739Z,100.00
2023-04-11T09:54:05.461Z,100.00
2023-04-11T09:56:34.170Z,100.00
2023-04-11T09:59:03.364Z,100.00
2023-04-11T10:01:30.773Z,97.43
2023-04-11T10:03:58.344Z,93.52
2023-04-11T10:07:14.393Z,86.32
2023-04-11T10:09:43.475Z,85.32
2023-04-11T10:12:10.608Z,91.68
2023-04-11T10:14:37.486Z,85.13
2023-04-11T10:17:23.890Z,78.11
2023-04-11T10:19:57.514Z,69.40
2023-04-11T10:22:50.249Z,67.39
2023-04-11T10:25:26.894Z,65.46
2023-04-11T10:28:03.968Z,66.55
2023-04-11T10:30:40.048Z,65.45
2023-04-11T10:33:15.972Z,62.26
2023-04-11T10:36:10.113Z,62.64
2023-04-11T10:38:40.850Z,61.59
2023-04-11T10:41:23.048Z,49.99
2023-04-11T10:43:50.640Z,52.58
2023-04-11T10:46:22.904Z,52.44
2023-04-11T10:49:04.667Z,50.99
2023-04-11T10:51:33.505Z,47.67
2023-04-11T10:54:01.939Z,47.76
2023-04-11T10:56:54.517Z,51.71
2023-04-11T10:59:34.444Z,52.05
2023-04-11T11:02:02.727Z,50.60
2023-04-11T11:04:32.836Z,53.12
2023-04-11T11:07:04.298Z,55.54
2023-04-11T11:09:32.575Z,53.39
2023-04-11T11:12:13.385Z,51.71
2023-04-11T11:14:42.934Z,50.61
2023-04-11T11:17:13.121Z,47.46
2023-04-11T11:19:47.763Z,48.36
2023-04-11T11:22:25.560Z,51.81
2023-04-11T11:24:53.238Z,53.88
2023-04-11T11:27:25.234Z,49.74
2023-04-11T11:29:53.274Z,49.05
2023-04-11T11:32:28.896Z,49.54
2023-04-11T11:34:57.598Z,51.98
2023-04-11T11:37:25.221Z,47.31
2023-04-11T11:39:52.400Z,49.32
2023-04-11T11:42:20.515Z,50.82
2023-04-11T11:44:47.610Z,49.20
2023-04-11T11:47:15.471Z,45.81
2023-04-11T11:49:54.318Z,49.40
2023-04-11T11:52:35.102Z,45.91
2023-04-11T11:55:06.141Z,43.72
2023-04-11T11:57:34.612Z,45.36
2023-04-11T12:00:05.892Z,48.19
2023-04-11T12:02:38.299Z,50.72
2023-04-11T12:05:07.246Z,52.49
2023-04-11T12:07:38.044Z,51.29
2023-04-11T12:10:09.002Z,48.53
2023-04-11T12:12:38.211Z,45.84
2023-04-11T12:15:17.388Z,46.56
2023-04-11T12:17:49.832Z,49.45
2023-04-11T12:20:16.968Z,48.63
2023-04-11T12:22:44.000Z,47.89
2023-04-11T12:25:13.624Z,46.47
2023-04-11T12:27:42.861Z,47.95
2023-04-11T12:30:12.668Z,48.15
2023-04-11T12:32:39.653Z,49.53
2023-04-11T12:35:07.621Z,50.15
2023-04-11T12:37:35.434Z,49.32
2023-04-11T12:40:06.770Z,50.19
2023-04-11T12:42:39.076Z,51.27
2023-04-11T12:45:13.434Z,49.05
2023-04-11T12:47:40.961Z,49.82
2023-04-11T12:50:09.187Z,51.44
2023-04-11T12:52:37.036Z,50.38
2023-04-11T12:55:04.888Z,50.24
2023-04-11T12:57:31.877Z,50.25
2023-04-11T12:59:59.299Z,48.86
2023-04-11T13:02:27.167Z,49.44
2023-04-11T13:04:55.268Z,50.26
2023-04-11T13:07:22.269Z,50.17
2023-04-11T13:09:49.596Z,51.52
2023-04-11T13:12:16.647Z,51.18
2023-04-11T13:14:43.610Z,50.30
2023-04-11T13:17:11.291Z,49.54
2023-04-11T13:19:38.254Z,48.53
2023-04-11T13:22:05.321Z,48.79
2023-04-11T13:24:32.387Z,50.83
2023-04-11T13:26:59.461Z,51.41
2023-04-11T13:29:27.038Z,52.30
2023-04-11T13:31:54.032Z,51.26
2023-04-11T13:34:21.039Z,49.98
2023-04-11T13:36:48.026Z,51.76
2023-04-11T13:39:15.256Z,52.03
2023-04-11T13:41:42.207Z,52.44
2023-04-11T13:44:09.141Z,51.43
2023-04-11T13:46:36.113Z,52.57
2023-04-11T13:49:05.440Z,54.23
2023-04-11T13:51:35.628Z,55.61
2023-04-11T13:54:02.649Z,56.40
2023-04-11T13:56:29.720Z,55.04
2023-04-11T13:58:56.939Z,55.70
2023-04-11T14:01:24.082Z,54.36
2023-04-11T14:03:51.338Z,54.79
2023-04-11T14:06:19.626Z,52.30
2023-04-11T14:08:48.582Z,52.41
2023-04-11T14:11:16.501Z,51.47
2023-04-11T14:13:43.537Z,53.19
2023-04-11T14:16:11.077Z,55.76
2023-04-11T14:18:38.144Z,54.77
2023-04-11T14:21:06.106Z,53.80
2023-04-11T14:23:33.198Z,52.91
2023-04-11T14:26:00.153Z,53.51
2023-04-11T14:28:27.153Z,53.59
2023-04-11T14:30:55.888Z,54.32
2023-04-11T14:33:23.649Z,56.07
2023-04-11T14:35:51.191Z,57.57
2023-04-11T14:38:18.301Z,57.16
2023-04-11T14:40:45.469Z,55.82
2023-04-11T14:43:12.437Z,54.25
2023-04-11T14:45:39.414Z,54.68
2023-04-11T14:48:06.735Z,54.73
2023-04-11T14:50:33.952Z,54.52
2023-04-11T14:53:01.164Z,53.68
2023-04-11T14:55:28.225Z,52.13
2023-04-11T14:57:56.538Z,52.08
2023-04-11T15:00:24.836Z,54.01
2023-04-11T15:02:54.420Z,53.42
2023-04-11T15:05:23.148Z,52.36
2023-04-11T15:07:52.975Z,51.17
2023-04-11T15:10:25.367Z,51.35
2023-04-11T15:12:53.264Z,51.45
2023-04-11T15:15:20.408Z,48.61
2023-04-11T15:17:49.992Z,50.61
2023-04-11T15:20:17.236Z,52.29
2023-04-11T15:22:48.263Z,52.96
2023-04-11T15:25:16.510Z,52.98
2023-04-11T15:27:44.031Z,51.65
2023-04-11T15:30:11.571Z,51.72
2023-04-11T15:32:45.009Z,53.07
2023-04-11T15:35:12.206Z,53.14
2023-04-11T15:37:39.234Z,52.59
2023-04-11T15:40:07.825Z,53.34
2023-04-11T15:42:35.870Z,54.21
2023-04-11T15:45:03.963Z,55.46
2023-04-11T15:47:31.517Z,54.02
2023-04-11T15:50:04.004Z,53.94
2023-04-11T15:52:30.983Z,54.07
2023-04-11T15:54:57.938Z,51.83
2023-04-11T15:57:26.661Z,52.27
2023-04-11T15:59:53.730Z,52.06
2023-04-11T16:02:20.802Z,50.85
2023-04-11T16:04:50.127Z,51.01
2023-04-11T16:07:19.266Z,53.16
2023-04-11T16:09:46.561Z,52.07
2023-04-11T16:12:13.922Z,50.81
2023-04-11T16:14:40.967Z,51.52
2023-04-11T16:17:07.978Z,50.85
2023-04-11T16:19:35.203Z,52.72
2023-04-11T16:22:02.245Z,53.89
2023-04-11T16:24:29.891Z,53.60
2023-04-11T16:26:59.713Z,52.63
2023-04-11T16:29:26.699Z,53.28
2023-04-11T16:31:53.754Z,53.61
2023-04-11T16:34:20.816Z,53.99
2023-04-11T16:36:47.892Z,52.92
2023-04-11T16:39:14.894Z,52.02
2023-04-11T16:41:42.075Z,52.23
2023-04-11T16:44:11.731Z,52.30
2023-04-11T16:46:42.578Z,53.06
2023-04-11T16:49:10.726Z,52.35
2023-04-11T16:51:37.924Z,54.32
2023-04-11T16:54:09.673Z,53.67
2023-04-11T16:56:39.823Z,53.92
2023-04-11T16:59:06.891Z,55.08
2023-04-11T17:01:34.033Z,55.62
2023-04-11T17:04:01.765Z,56.21
2023-04-11T17:06:29.083Z,56.67
2023-04-11T17:08:57.520Z,56.35
2023-04-11T17:11:24.978Z,57.46
2023-04-11T17:13:54.482Z,58.06
2023-04-11T17:16:22.041Z,59.23
2023-04-11T17:18:49.117Z,59.73
2023-04-11T17:21:17.040Z,60.90
2023-04-11T17:23:44.867Z,62.67
2023-04-11T17:26:12.573Z,62.38
2023-04-11T17:28:40.774Z,62.37
2023-04-11T17:31:15.590Z,62.30
2023-04-11T17:33:42.913Z,63.60
2023-04-11T17:36:12.739Z,64.24
2023-04-11T17:38:40.870Z,66.31
2023-04-11T17:41:14.301Z,66.57
2023-04-11T17:43:43.380Z,68.36
2023-04-11T17:46:10.537Z,70.17
2023-04-11T17:48:37.834Z,73.23
2023-04-11T17:51:08.284Z,74.26
2023-04-11T17:53:35.802Z,74.90
2023-04-11T17:56:04.663Z,76.64
2023-04-11T17:58:32.216Z,78.76
2023-04-11T18:00:59.621Z,79.47
2023-04-11T18:03:26.769Z,80.36
2023-04-11T18:05:54.760Z,81.88
2023-04-11T18:08:35.495Z,83.51
2023-04-11T18:11:10.006Z,86.65
2023-04-11T18:13:37.056Z,88.10
2023-04-11T18:16:04.354Z,87.27
2023-04-11T18:18:31.357Z,86.16
2023-04-11T18:21:06.654Z,85.92
2023-04-11T18:23:34.794Z,86.39
2023-04-11T18:26:01.728Z,86.11
2023-04-11T18:28:29.327Z,87.79
2023-04-11T18:30:56.806Z,90.03
2023-04-11T18:33:24.032Z,93.77
2023-04-11T18:35:51.170Z,95.30
2023-04-11T18:38:18.243Z,97.53
2023-04-11T18:40:46.077Z,99.46
2023-04-11T18:43:13.369Z,100.00
2023-04-11T18:45:41.897Z,100.00
2023-04-11T18:48:09.531Z,100.00
2023-04-11T18:50:42.817Z,99.72
2023-04-11T18:53:13.632Z,100.00
2023-04-11T18:55:41.415Z,100.00
2023-04-11T18:58:10.146Z,100.00
2023-04-11T19:00:39.172Z,100.00
2023-04-11T19:03:14.728Z,100.00
2023-04-11T19:05:43.921Z,100.00
2023-04-11T19:08:11.517Z,100.00
2023-04-11T19:10:38.589Z,100.00
2023-04-11T19:13:06.481Z,100.00
2023-04-11T19:15:33.663Z,100.00
2023-04-11T19:18:01.725Z,100.00
2023-04-11T19:20:29.496Z,100.00
2023-04-11T19:22:56.583Z,100.00
2023-04-11T19:25:23.578Z,100.00
2023-04-11T19:27:51.085Z,100.00
2023-04-11T19:30:18.006Z,100.00
2023-04-11T19:32:47.313Z,100.00
2023-04-11T19:35:14.712Z,100.00
2023-04-11T19:37:42.580Z,100.00
2023-04-11T19:40:16.673Z,100.00
2023-04-11T19:42:44.840Z,100.00
2023-04-11T19:45:12.428Z,100.00
2023-04-11T19:47:41.023Z,100.00
2023-04-11T19:50:13.300Z,100.00
2023-04-11T19:52:42.254Z,100.00
2023-04-11T19:55:10.827Z,100.00
2023-04-11T19:57:43.466Z,100.00
2023-04-11T20:00:13.385Z,100.00
2023-04-11T20:02:46.524Z,100.00
2023-04-11T20:05:18.929Z,100.00
2023-04-11T20:07:46.943Z,100.00
2023-04-11T20:10:15.893Z,100.00
2023-04-11T20:12:43.106Z,100.00
2023-04-11T20:15:11.093Z,100.00
2023-04-11T20:17:38.125Z,100.00
2023-04-11T20:20:06.576Z,100.00
2023-04-11T20:22:33.760Z,100.00
2023-04-11T20:25:00.972Z,100.00
2023-04-11T20:27:28.342Z,100.00
2023-04-11T20:29:56.612Z,100.00
2023-04-11T20:32:23.743Z,100.00
2023-04-11T20:34:50.871Z,100.00
2023-04-11T20:37:19.472Z,100.00
2023-04-11T20:39:46.764Z,100.00
2023-04-11T20:42:13.735Z,100.00
2023-04-11T20:44:42.581Z,100.00
2023-04-11T20:47:09.670Z,100.00
2023-04-11T20:49:36.627Z,100.00
2023-04-11T20:52:03.693Z,100.00
2023-04-11T20:54:30.768Z,100.00
2023-04-11T20:56:57.746Z,100.00
2023-04-11T20:59:24.722Z,100.00
2023-04-11T21:01:53.586Z,100.00
2023-04-11T21:04:21.952Z,100.00
2023-04-11T21:06:50.145Z,100.00
2023-04-11T21:09:17.585Z,100.00
2023-04-11T21:11:44.582Z,100.00
2023-04-11T21:14:11.518Z,100.00
2023-04-11T21:16:38.534Z,100.00
2023-04-11T21:19:05.514Z,100.00
2023-04-11T21:21:33.464Z,100.00
2023-04-11T21:24:01.404Z,100.00
2023-04-11T21:26:28.333Z,100.00
2023-04-11T21:28:55.968Z,100.00
2023-04-11T21:31:22.967Z,100.00
2023-04-11T21:33:49.964Z,100.00
2023-04-11T21:36:17.027Z,100.00
2023-04-11T21:38:44.055Z,100.00
2023-04-11T21:41:11.034Z,100.00
2023-04-11T21:43:38.006Z,100.00
2023-04-11T21:46:05.278Z,100.00
2023-04-11T21:48:32.293Z,100.00
2023-04-11T21:50:59.296Z,100.00
2023-04-11T21:53:26.770Z,100.00
2023-04-11T21:55:53.716Z,100.00
2023-04-11T21:58:29.053Z,100.00
2023-04-11T22:00:56.939Z,100.00
2023-04-11T22:03:24.392Z,100.00
2023-04-11T22:05:52.366Z,100.00
2023-04-11T22:08:22.186Z,100.00
2023-04-11T22:10:50.788Z,100.00
2023-04-11T22:13:19.708Z,100.00
2023-04-11T22:15:48.879Z,100.00
2023-04-11T22:18:16.028Z,100.00
2023-04-11T22:20:44.301Z,100.00
2023-04-11T22:23:13.025Z,100.00
2023-04-11T22:25:44.184Z,100.00
2023-04-11T22:28:18.429Z,100.00
2023-04-11T22:30:46.523Z,100.00
2023-04-11T22:33:14.026Z,100.00
2023-04-11T22:35:43.986Z,100.00
2023-04-11T22:38:11.600Z,100.00
2023-04-11T22:40:40.157Z,100.00
2023-04-11T22:43:07.496Z,100.00
2023-04-11T22:45:35.966Z,100.00
2023-04-11T22:48:05.883Z,100.00
2023-04-11T22:50:37.908Z,100.00
2023-04-11T22:53:05.580Z,100.00
2023-04-11T22:55:35.696Z,100.00
2023-04-11T22:58:03.530Z,100.00
2023-04-11T23:00:31.403Z,100.00
2023-04-11T23:02:59.761Z,100.00
2023-04-11T23:05:27.105Z,100.00
2023-04-11T23:07:54.545Z,100.00
2023-04-11T23:10:21.505Z,100.00
2023-04-11T23:12:49.456Z,100.00
2023-04-11T23:15:17.342Z,100.00
2023-04-11T23:17:44.972Z,100.00
2023-04-11T23:20:13.425Z,100.00
2023-04-11T23:22:43.215Z,100.00
2023-04-11T23:25:14.961Z,100.00
2023-04-11T23:27:43.466Z,100.00
2023-04-11T23:30:11.847Z,100.00
2023-04-11T23:32:39.934Z,100.00
2023-04-11T23:35:08.401Z,100.00
2023-04-11T23:37:35.356Z,100.00
2023-04-11T23:40:11.043Z,100.00
2023-04-11T23:42:39.123Z,100.00
2023-04-11T23:45:07.746Z,100.00
2023-04-11T23:47:35.138Z,100.00
2023-04-11T23:50:03.610Z,100.00
2023-04-11T23:52:31.092Z,100.00
2023-04-11T23:54:58.467Z,100.00
2023-04-11T23:57:25.541Z,100.00
2023-04-11T23:59:52.518Z,100.00
